JLY7645 SBBR-SBCT
Flight info
| Callsign | JLY7645 |
|---|---|
| Flight time | 1h 33m |
| Altitude | 34000 |
| Route | KUKOL UZ5 UMGUL |
| Aircraft | B738/M-SDE2E3FGHIRWXY/LB1 |
Departure
| Time | 2026-05-08 14:09 |
|---|---|
| Airport | Presidente Juscelino Kubitschek International Airport (SBBR) |
Arrival
| Time | 2026-05-08 15:43 |
|---|---|
| Airport | Curitiba-Afonso Pena International Airport (SBCT) |
| Time | Latitude | Longitude | Altitude | Speed | Heading |
|---|---|---|---|---|---|
| 2026-05-08 13:31 | -15.87261 | -47.91848 | 3469 ft | 0 kts | 357° |
| 2026-05-08 13:57 | -15.87266 | -47.91848 | 3469 ft | 4 kts | 356° |
| 2026-05-08 13:57 | -15.87293 | -47.91845 | 3468 ft | 4 kts | 3° |
| 2026-05-08 13:58 | -15.87317 | -47.91852 | 3469 ft | 4 kts | 44° |
| 2026-05-08 13:58 | -15.87328 | -47.91872 | 3469 ft | 2 kts | 86° |
| 2026-05-08 13:58 | -15.87328 | -47.91873 | 3469 ft | 2 kts | 86° |
| 2026-05-08 14:00 | -15.87328 | -47.91869 | 3469 ft | 3 kts | 86° |
| 2026-05-08 14:01 | -15.87325 | -47.91823 | 3469 ft | 10 kts | 86° |
| 2026-05-08 14:01 | -15.87320 | -47.91747 | 3469 ft | 11 kts | 85° |
| 2026-05-08 14:01 | -15.87331 | -47.91675 | 3468 ft | 10 kts | 136° |
| 2026-05-08 14:01 | -15.87400 | -47.91663 | 3469 ft | 10 kts | 177° |
| 2026-05-08 14:02 | -15.87468 | -47.91659 | 3469 ft | 10 kts | 176° |
| 2026-05-08 14:02 | -15.87535 | -47.91654 | 3468 ft | 10 kts | 176° |
| 2026-05-08 14:02 | -15.87600 | -47.91649 | 3469 ft | 9 kts | 175° |
| 2026-05-08 14:02 | -15.87663 | -47.91644 | 3469 ft | 9 kts | 175° |
| 2026-05-08 14:03 | -15.87722 | -47.91654 | 3469 ft | 9 kts | 220° |
| 2026-05-08 14:03 | -15.87741 | -47.91713 | 3469 ft | 10 kts | 265° |
| 2026-05-08 14:03 | -15.87747 | -47.91798 | 3469 ft | 14 kts | 266° |
| 2026-05-08 14:03 | -15.87754 | -47.91920 | 3470 ft | 19 kts | 266° |
| 2026-05-08 14:04 | -15.87762 | -47.92072 | 3470 ft | 22 kts | 266° |
| 2026-05-08 14:04 | -15.87772 | -47.92229 | 3470 ft | 21 kts | 266° |
| 2026-05-08 14:04 | -15.87783 | -47.92382 | 3470 ft | 21 kts | 264° |
| 2026-05-08 14:04 | -15.87794 | -47.92530 | 3470 ft | 20 kts | 267° |
| 2026-05-08 14:05 | -15.87802 | -47.92673 | 3470 ft | 20 kts | 267° |
| 2026-05-08 14:05 | -15.87809 | -47.92812 | 3470 ft | 19 kts | 266° |
| 2026-05-08 14:05 | -15.87817 | -47.92947 | 3470 ft | 18 kts | 265° |
| 2026-05-08 14:05 | -15.87832 | -47.93076 | 3470 ft | 18 kts | 266° |
| 2026-05-08 14:06 | -15.87836 | -47.93202 | 3471 ft | 17 kts | 268° |
| 2026-05-08 14:06 | -15.87846 | -47.93322 | 3471 ft | 16 kts | 263° |
| 2026-05-08 14:06 | -15.87852 | -47.93439 | 3471 ft | 16 kts | 268° |
| 2026-05-08 14:06 | -15.87859 | -47.93551 | 3471 ft | 15 kts | 266° |
| 2026-05-08 14:07 | -15.87864 | -47.93658 | 3472 ft | 15 kts | 266° |
| 2026-05-08 14:07 | -15.87872 | -47.93761 | 3472 ft | 14 kts | 265° |
| 2026-05-08 14:07 | -15.87879 | -47.93859 | 3472 ft | 13 kts | 265° |
| 2026-05-08 14:07 | -15.87887 | -47.93953 | 3472 ft | 12 kts | 258° |
| 2026-05-08 14:08 | -15.87951 | -47.93999 | 3476 ft | 12 kts | 182° |
| 2026-05-08 14:08 | -15.88033 | -47.93989 | 3483 ft | 12 kts | 155° |
| 2026-05-08 14:08 | -15.88059 | -47.93910 | 3482 ft | 18 kts | 89° |
| 2026-05-08 14:08 | -15.88035 | -47.93543 | 3478 ft | 85 kts | 86° |
| 2026-05-08 14:09 | -15.87982 | -47.92714 | 3475 ft | 142 kts | 86° |
| 2026-05-08 14:09 | -15.87927 | -47.91560 | 3732 ft | 171 kts | 87° |
| 2026-05-08 14:09 | -15.87878 | -47.90280 | 4369 ft | 183 kts | 94° |
| 2026-05-08 14:09 | -15.88455 | -47.89072 | 5027 ft | 198 kts | 139° |
| 2026-05-08 14:10 | -15.89772 | -47.88452 | 5465 ft | 223 kts | 161° |
| 2026-05-08 14:10 | -15.91353 | -47.88060 | 5638 ft | 245 kts | 166° |
| 2026-05-08 14:10 | -15.93072 | -47.87684 | 5966 ft | 260 kts | 165° |
| 2026-05-08 14:10 | -15.94917 | -47.87273 | 6193 ft | 279 kts | 166° |
| 2026-05-08 14:11 | -15.96853 | -47.86830 | 6798 ft | 287 kts | 166° |
| 2026-05-08 14:11 | -15.98807 | -47.86372 | 7610 ft | 289 kts | 166° |
| 2026-05-08 14:11 | -16.00775 | -47.85903 | 8391 ft | 291 kts | 167° |
| 2026-05-08 14:11 | -16.02780 | -47.85517 | 8881 ft | 294 kts | 180° |
| 2026-05-08 14:12 | -16.04767 | -47.85938 | 9175 ft | 296 kts | 207° |
| 2026-05-08 14:12 | -16.06369 | -47.87260 | 9277 ft | 295 kts | 237° |
| 2026-05-08 14:12 | -16.07244 | -47.89163 | 9993 ft | 290 kts | 259° |
| 2026-05-08 14:12 | -16.07493 | -47.91236 | 10654 ft | 294 kts | 268° |
| 2026-05-08 14:13 | -16.07608 | -47.93438 | 10823 ft | 317 kts | 268° |
| 2026-05-08 14:13 | -16.07725 | -47.95807 | 10994 ft | 340 kts | 268° |
| 2026-05-08 14:13 | -16.07984 | -47.98326 | 11118 ft | 362 kts | 256° |
| 2026-05-08 14:13 | -16.09057 | -48.00770 | 11272 ft | 381 kts | 241° |
| 2026-05-08 14:14 | -16.10401 | -48.03197 | 11590 ft | 392 kts | 242° |
| 2026-05-08 14:14 | -16.11755 | -48.05675 | 12052 ft | 397 kts | 242° |
| 2026-05-08 14:14 | -16.13104 | -48.08200 | 12596 ft | 400 kts | 242° |
| 2026-05-08 14:14 | -16.14447 | -48.10748 | 13054 ft | 405 kts | 242° |
| 2026-05-08 14:15 | -16.15808 | -48.13340 | 13462 ft | 411 kts | 242° |
| 2026-05-08 14:15 | -16.17182 | -48.15958 | 13951 ft | 414 kts | 241° |
| 2026-05-08 14:15 | -16.18564 | -48.18590 | 14422 ft | 415 kts | 242° |
| 2026-05-08 14:15 | -16.19956 | -48.21240 | 14863 ft | 418 kts | 242° |
| 2026-05-08 14:16 | -16.21354 | -48.23902 | 15283 ft | 420 kts | 241° |
| 2026-05-08 14:16 | -16.22771 | -48.26574 | 15722 ft | 422 kts | 239° |
| 2026-05-08 14:16 | -16.24662 | -48.28903 | 16120 ft | 425 kts | 218° |
| 2026-05-08 14:16 | -16.27190 | -48.30471 | 16550 ft | 425 kts | 201° |
| 2026-05-08 14:17 | -16.29989 | -48.31465 | 17002 ft | 426 kts | 197° |
| 2026-05-08 14:17 | -16.32824 | -48.32402 | 17402 ft | 428 kts | 197° |
| 2026-05-08 14:17 | -16.35668 | -48.33338 | 17773 ft | 431 kts | 197° |
| 2026-05-08 14:17 | -16.38535 | -48.34293 | 18137 ft | 433 kts | 198° |
| 2026-05-08 14:18 | -16.41408 | -48.35266 | 18485 ft | 435 kts | 198° |
| 2026-05-08 14:18 | -16.44288 | -48.36252 | 18806 ft | 437 kts | 198° |
| 2026-05-08 14:18 | -16.47187 | -48.37251 | 19113 ft | 439 kts | 198° |
| 2026-05-08 14:18 | -16.50095 | -48.38257 | 19408 ft | 441 kts | 199° |
| 2026-05-08 14:19 | -16.53016 | -48.39268 | 19696 ft | 443 kts | 199° |
| 2026-05-08 14:19 | -16.55951 | -48.40283 | 19993 ft | 445 kts | 199° |
| 2026-05-08 14:19 | -16.58897 | -48.41302 | 20289 ft | 447 kts | 199° |
| 2026-05-08 14:19 | -16.61853 | -48.42325 | 20568 ft | 449 kts | 199° |
| 2026-05-08 14:20 | -16.64823 | -48.43353 | 20841 ft | 451 kts | 199° |
| 2026-05-08 14:20 | -16.67814 | -48.44388 | 21098 ft | 453 kts | 199° |
| 2026-05-08 14:20 | -16.70886 | -48.45176 | 21290 ft | 458 kts | 188° |
| 2026-05-08 14:20 | -16.74068 | -48.45495 | 21536 ft | 461 kts | 185° |
| 2026-05-08 14:21 | -16.77275 | -48.45705 | 21796 ft | 463 kts | 184° |
| 2026-05-08 14:21 | -16.80456 | -48.45893 | 22032 ft | 465 kts | 184° |
| 2026-05-08 14:21 | -16.83688 | -48.46096 | 22305 ft | 466 kts | 184° |
| 2026-05-08 14:21 | -16.86969 | -48.46327 | 22592 ft | 467 kts | 185° |
| 2026-05-08 14:22 | -16.90212 | -48.46576 | 22800 ft | 469 kts | 185° |
| 2026-05-08 14:22 | -16.93477 | -48.46842 | 22992 ft | 472 kts | 185° |
| 2026-05-08 14:22 | -16.96762 | -48.47117 | 23175 ft | 474 kts | 185° |
| 2026-05-08 14:22 | -17.00008 | -48.47392 | 23446 ft | 475 kts | 185° |
| 2026-05-08 14:23 | -17.03304 | -48.47672 | 23686 ft | 476 kts | 185° |
| 2026-05-08 14:23 | -17.06609 | -48.47951 | 23873 ft | 477 kts | 186° |
| 2026-05-08 14:23 | -17.09927 | -48.48232 | 24023 ft | 479 kts | 186° |
| 2026-05-08 14:23 | -17.13260 | -48.48513 | 24169 ft | 481 kts | 186° |
| 2026-05-08 14:24 | -17.16602 | -48.48794 | 24402 ft | 481 kts | 186° |
| 2026-05-08 14:24 | -17.19935 | -48.49075 | 24656 ft | 480 kts | 185° |
| 2026-05-08 14:24 | -17.23269 | -48.49354 | 24830 ft | 482 kts | 186° |
| 2026-05-08 14:24 | -17.26623 | -48.49637 | 24949 ft | 484 kts | 186° |
| 2026-05-08 14:25 | -17.29988 | -48.49920 | 25102 ft | 486 kts | 186° |
| 2026-05-08 14:25 | -17.33356 | -48.50204 | 25294 ft | 486 kts | 186° |
| 2026-05-08 14:25 | -17.36729 | -48.50488 | 25509 ft | 486 kts | 186° |
| 2026-05-08 14:25 | -17.40101 | -48.50773 | 25716 ft | 486 kts | 186° |
| 2026-05-08 14:26 | -17.43483 | -48.51058 | 25868 ft | 488 kts | 186° |
| 2026-05-08 14:26 | -17.46867 | -48.51343 | 26011 ft | 489 kts | 186° |
| 2026-05-08 14:26 | -17.50265 | -48.51630 | 26187 ft | 490 kts | 186° |
| 2026-05-08 14:26 | -17.53661 | -48.51917 | 26359 ft | 490 kts | 186° |
| 2026-05-08 14:27 | -17.57065 | -48.52205 | 26538 ft | 491 kts | 186° |
| 2026-05-08 14:27 | -17.60473 | -48.52493 | 26683 ft | 492 kts | 186° |
| 2026-05-08 14:27 | -17.63889 | -48.52781 | 26829 ft | 493 kts | 186° |
| 2026-05-08 14:27 | -17.67305 | -48.53070 | 27027 ft | 492 kts | 186° |
| 2026-05-08 14:28 | -17.70717 | -48.53359 | 27298 ft | 491 kts | 186° |
| 2026-05-08 14:28 | -17.74110 | -48.53651 | 27574 ft | 489 kts | 187° |
| 2026-05-08 14:28 | -17.77498 | -48.53950 | 27858 ft | 487 kts | 187° |
| 2026-05-08 14:28 | -17.80876 | -48.54253 | 28110 ft | 487 kts | 187° |
| 2026-05-08 14:29 | -17.84245 | -48.54556 | 28387 ft | 485 kts | 187° |
| 2026-05-08 14:29 | -17.87609 | -48.54858 | 28669 ft | 484 kts | 187° |
| 2026-05-08 14:29 | -17.90965 | -48.55158 | 28960 ft | 483 kts | 187° |
| 2026-05-08 14:29 | -17.94306 | -48.55456 | 29264 ft | 482 kts | 187° |
| 2026-05-08 14:30 | -17.97644 | -48.55754 | 29529 ft | 481 kts | 187° |
| 2026-05-08 14:30 | -18.00979 | -48.56051 | 29828 ft | 480 kts | 188° |
| 2026-05-08 14:30 | -18.04295 | -48.56347 | 30143 ft | 478 kts | 188° |
| 2026-05-08 14:30 | -18.07606 | -48.56643 | 30432 ft | 476 kts | 188° |
| 2026-05-08 14:31 | -18.10902 | -48.56937 | 30688 ft | 476 kts | 188° |
| 2026-05-08 14:31 | -18.14202 | -48.57232 | 30912 ft | 475 kts | 188° |
| 2026-05-08 14:31 | -18.17498 | -48.57527 | 31153 ft | 475 kts | 188° |
| 2026-05-08 14:32 | -18.24068 | -48.58115 | 31689 ft | 473 kts | 188° |
| 2026-05-08 14:32 | -18.27347 | -48.58408 | 31948 ft | 472 kts | 188° |
| 2026-05-08 14:32 | -18.30616 | -48.58701 | 32197 ft | 472 kts | 188° |
| 2026-05-08 14:32 | -18.33888 | -48.58998 | 32454 ft | 471 kts | 188° |
| 2026-05-08 14:33 | -18.37151 | -48.59298 | 32722 ft | 470 kts | 188° |
| 2026-05-08 14:33 | -18.40411 | -48.59599 | 32988 ft | 470 kts | 188° |
| 2026-05-08 14:33 | -18.43660 | -48.59899 | 33242 ft | 469 kts | 188° |
| 2026-05-08 14:33 | -18.46909 | -48.60199 | 33487 ft | 468 kts | 188° |
| 2026-05-08 14:34 | -18.49062 | -48.60398 | 33658 ft | 468 kts | 188° |
| 2026-05-08 14:34 | -18.52281 | -48.60695 | 33914 ft | 467 kts | 188° |
| 2026-05-08 14:34 | -18.55530 | -48.60995 | 34061 ft | 468 kts | 189° |
| 2026-05-08 14:34 | -18.58788 | -48.61296 | 34050 ft | 470 kts | 189° |
| 2026-05-08 14:35 | -18.65282 | -48.61895 | 34065 ft | 467 kts | 189° |
| 2026-05-08 14:35 | -18.71753 | -48.62487 | 34060 ft | 466 kts | 189° |
| 2026-05-08 14:36 | -18.78198 | -48.63071 | 34063 ft | 464 kts | 189° |
| 2026-05-08 14:36 | -18.84633 | -48.63654 | 34055 ft | 464 kts | 189° |
| 2026-05-08 14:37 | -18.91070 | -48.64239 | 34051 ft | 464 kts | 189° |
| 2026-05-08 14:37 | -18.97499 | -48.64824 | 34054 ft | 464 kts | 189° |
| 2026-05-08 14:38 | -19.03945 | -48.65410 | 34052 ft | 465 kts | 189° |
| 2026-05-08 14:38 | -19.10408 | -48.65999 | 34054 ft | 467 kts | 189° |
| 2026-05-08 14:39 | -19.16883 | -48.66589 | 34041 ft | 468 kts | 189° |
| 2026-05-08 14:39 | -19.23369 | -48.67231 | 34036 ft | 468 kts | 190° |
| 2026-05-08 14:40 | -19.29860 | -48.67913 | 34043 ft | 469 kts | 190° |
| 2026-05-08 14:40 | -19.36351 | -48.68593 | 34040 ft | 469 kts | 190° |
| 2026-05-08 14:41 | -19.42848 | -48.69266 | 34034 ft | 469 kts | 190° |
| 2026-05-08 14:41 | -19.49342 | -48.69937 | 34033 ft | 469 kts | 190° |
| 2026-05-08 14:42 | -19.55835 | -48.70608 | 34031 ft | 468 kts | 190° |
| 2026-05-08 14:42 | -19.62318 | -48.71279 | 34033 ft | 468 kts | 190° |
| 2026-05-08 14:43 | -19.68794 | -48.71950 | 34030 ft | 468 kts | 190° |
| 2026-05-08 14:43 | -19.75269 | -48.72621 | 34028 ft | 467 kts | 190° |
| 2026-05-08 14:44 | -19.81737 | -48.73293 | 34022 ft | 467 kts | 190° |
| 2026-05-08 14:44 | -19.88206 | -48.73964 | 34017 ft | 467 kts | 190° |
| 2026-05-08 14:45 | -19.94674 | -48.74637 | 34007 ft | 467 kts | 190° |
| 2026-05-08 14:45 | -20.01139 | -48.75310 | 34017 ft | 467 kts | 190° |
| 2026-05-08 14:46 | -20.07609 | -48.75983 | 34010 ft | 467 kts | 190° |
| 2026-05-08 14:46 | -20.14046 | -48.76654 | 34016 ft | 468 kts | 191° |
| 2026-05-08 14:47 | -20.20526 | -48.77330 | 34008 ft | 468 kts | 191° |
| 2026-05-08 14:47 | -20.27058 | -48.78012 | 34011 ft | 469 kts | 191° |
| 2026-05-08 14:48 | -20.33514 | -48.78686 | 34013 ft | 469 kts | 191° |
| 2026-05-08 14:48 | -20.40019 | -48.79366 | 34015 ft | 470 kts | 191° |
| 2026-05-08 14:49 | -20.46397 | -48.80034 | 34014 ft | 470 kts | 191° |
| 2026-05-08 14:49 | -20.52913 | -48.80717 | 34003 ft | 471 kts | 191° |
| 2026-05-08 14:50 | -20.59433 | -48.81400 | 34013 ft | 470 kts | 191° |
| 2026-05-08 14:50 | -20.65950 | -48.82084 | 34010 ft | 471 kts | 191° |
| 2026-05-08 14:51 | -20.72442 | -48.82930 | 34008 ft | 468 kts | 194° |
| 2026-05-08 14:51 | -20.78875 | -48.84039 | 34003 ft | 469 kts | 194° |
| 2026-05-08 14:52 | -20.88563 | -48.85598 | 34007 ft | 469 kts | 194° |
| 2026-05-08 14:53 | -20.95034 | -48.86626 | 33997 ft | 470 kts | 194° |
| 2026-05-08 14:53 | -21.01505 | -48.87659 | 33992 ft | 470 kts | 194° |
| 2026-05-08 14:54 | -21.07973 | -48.88695 | 34007 ft | 470 kts | 194° |
| 2026-05-08 14:54 | -21.14447 | -48.89733 | 33994 ft | 471 kts | 194° |
| 2026-05-08 14:55 | -21.20922 | -48.90771 | 33997 ft | 471 kts | 194° |
| 2026-05-08 14:55 | -21.27409 | -48.91806 | 33988 ft | 471 kts | 194° |
| 2026-05-08 14:56 | -21.33897 | -48.92837 | 33982 ft | 471 kts | 194° |
| 2026-05-08 14:56 | -21.40380 | -48.93869 | 33987 ft | 471 kts | 194° |
| 2026-05-08 14:57 | -21.46879 | -48.94906 | 33981 ft | 471 kts | 194° |
| 2026-05-08 14:57 | -21.53360 | -48.95942 | 33976 ft | 471 kts | 194° |
| 2026-05-08 14:58 | -21.59847 | -48.96979 | 33986 ft | 471 kts | 194° |
| 2026-05-08 14:58 | -21.66322 | -48.98041 | 33969 ft | 469 kts | 196° |
| 2026-05-08 14:59 | -21.72611 | -48.99589 | 33983 ft | 465 kts | 200° |
| 2026-05-08 14:59 | -21.82052 | -49.01975 | 33976 ft | 464 kts | 199° |
| 2026-05-08 15:00 | -21.88344 | -49.03506 | 33973 ft | 463 kts | 199° |
| 2026-05-08 15:00 | -21.94625 | -49.05042 | 33982 ft | 462 kts | 199° |
| 2026-05-08 15:01 | -22.00891 | -49.06582 | 33979 ft | 461 kts | 199° |
| 2026-05-08 15:01 | -22.07148 | -49.08121 | 33997 ft | 461 kts | 199° |
| 2026-05-08 15:02 | -22.13391 | -49.09660 | 33996 ft | 460 kts | 199° |
| 2026-05-08 15:02 | -22.19628 | -49.11201 | 34008 ft | 460 kts | 199° |
| 2026-05-08 15:03 | -22.25868 | -49.12746 | 34017 ft | 460 kts | 199° |
| 2026-05-08 15:03 | -22.32106 | -49.14291 | 34024 ft | 460 kts | 199° |
| 2026-05-08 15:04 | -22.38346 | -49.15838 | 34019 ft | 461 kts | 199° |
| 2026-05-08 15:04 | -22.44553 | -49.17515 | 34015 ft | 459 kts | 201° |
| 2026-05-08 15:05 | -22.50721 | -49.19344 | 33982 ft | 460 kts | 201° |
| 2026-05-08 15:05 | -22.56907 | -49.21134 | 33969 ft | 461 kts | 201° |
| 2026-05-08 15:06 | -22.63092 | -49.22841 | 33965 ft | 462 kts | 200° |
| 2026-05-08 15:06 | -22.69325 | -49.24526 | 33962 ft | 462 kts | 200° |
| 2026-05-08 15:07 | -22.75602 | -49.26235 | 33974 ft | 462 kts | 200° |
| 2026-05-08 15:07 | -22.81795 | -49.27932 | 33961 ft | 462 kts | 201° |
| 2026-05-08 15:08 | -22.87018 | -49.29364 | 33962 ft | 462 kts | 201° |
| 2026-05-08 15:08 | -22.94270 | -49.31359 | 33954 ft | 463 kts | 201° |
| 2026-05-08 15:09 | -23.00511 | -49.33087 | 33965 ft | 463 kts | 201° |
| 2026-05-08 15:09 | -23.06756 | -49.34819 | 33970 ft | 464 kts | 201° |
| 2026-05-08 15:10 | -23.13023 | -49.36557 | 33966 ft | 465 kts | 201° |
| 2026-05-08 15:10 | -23.19352 | -49.38314 | 33961 ft | 467 kts | 201° |
| 2026-05-08 15:11 | -23.25637 | -49.39956 | 33957 ft | 469 kts | 199° |
| 2026-05-08 15:11 | -23.32034 | -49.41459 | 33958 ft | 471 kts | 199° |
| 2026-05-08 15:12 | -23.38450 | -49.42990 | 33957 ft | 472 kts | 199° |
| 2026-05-08 15:12 | -23.44842 | -49.44621 | 33955 ft | 470 kts | 202° |
| 2026-05-08 15:13 | -23.51119 | -49.46626 | 33967 ft | 470 kts | 204° |
| 2026-05-08 15:13 | -23.57394 | -49.48667 | 33960 ft | 472 kts | 203° |
| 2026-05-08 15:14 | -23.63717 | -49.50664 | 33961 ft | 474 kts | 202° |
| 2026-05-08 15:14 | -23.70142 | -49.52446 | 33961 ft | 478 kts | 200° |
| 2026-05-08 15:15 | -23.76758 | -49.53612 | 33953 ft | 496 kts | 182° |
| 2026-05-08 15:15 | -23.83669 | -49.52926 | 33973 ft | 500 kts | 180° |
| 2026-05-08 15:16 | -23.90609 | -49.52190 | 33956 ft | 501 kts | 180° |
| 2026-05-08 15:16 | -23.97558 | -49.51526 | 33956 ft | 501 kts | 181° |
| 2026-05-08 15:17 | -24.03327 | -49.51009 | 33954 ft | 500 kts | 181° |
| 2026-05-08 15:17 | -24.10258 | -49.50395 | 33971 ft | 500 kts | 181° |
| 2026-05-08 15:18 | -24.17189 | -49.49778 | 33969 ft | 500 kts | 181° |
| 2026-05-08 15:18 | -24.24119 | -49.49157 | 33960 ft | 499 kts | 181° |
| 2026-05-08 15:19 | -24.31036 | -49.48536 | 33966 ft | 499 kts | 181° |
| 2026-05-08 15:19 | -24.37956 | -49.47914 | 33951 ft | 498 kts | 181° |
| 2026-05-08 15:20 | -24.44859 | -49.47292 | 33966 ft | 497 kts | 181° |
| 2026-05-08 15:20 | -24.51719 | -49.46671 | 33935 ft | 484 kts | 181° |
| 2026-05-08 15:21 | -24.55026 | -49.46366 | 33937 ft | 470 kts | 181° |
| 2026-05-08 15:21 | -24.58233 | -49.46072 | 33924 ft | 456 kts | 181° |
| 2026-05-08 15:21 | -24.61347 | -49.45788 | 33922 ft | 442 kts | 182° |
| 2026-05-08 15:21 | -24.64368 | -49.45515 | 33925 ft | 429 kts | 182° |
| 2026-05-08 15:22 | -24.67304 | -49.45251 | 33916 ft | 417 kts | 182° |
| 2026-05-08 15:22 | -24.70176 | -49.44996 | 33933 ft | 415 kts | 182° |
| 2026-05-08 15:22 | -24.76029 | -49.44483 | 33957 ft | 428 kts | 182° |
| 2026-05-08 15:23 | -24.81984 | -49.43943 | 33939 ft | 430 kts | 182° |
| 2026-05-08 15:23 | -24.87969 | -49.43399 | 33925 ft | 431 kts | 182° |
| 2026-05-08 15:24 | -24.90946 | -49.43127 | 33821 ft | 424 kts | 182° |
| 2026-05-08 15:24 | -24.93863 | -49.42859 | 33364 ft | 419 kts | 182° |
| 2026-05-08 15:24 | -24.96772 | -49.42596 | 32683 ft | 421 kts | 182° |
| 2026-05-08 15:24 | -24.99710 | -49.42334 | 31706 ft | 429 kts | 182° |
| 2026-05-08 15:25 | -25.02745 | -49.42068 | 30464 ft | 446 kts | 181° |
| 2026-05-08 15:25 | -25.05904 | -49.41788 | 28974 ft | 463 kts | 181° |
| 2026-05-08 15:25 | -25.09169 | -49.41493 | 27431 ft | 477 kts | 181° |
| 2026-05-08 15:25 | -25.12515 | -49.41184 | 25991 ft | 487 kts | 180° |
| 2026-05-08 15:26 | -25.15907 | -49.40869 | 24653 ft | 493 kts | 180° |
| 2026-05-08 15:26 | -25.19338 | -49.40553 | 23381 ft | 496 kts | 180° |
| 2026-05-08 15:26 | -25.22766 | -49.40264 | 22171 ft | 492 kts | 181° |
| 2026-05-08 15:26 | -25.26148 | -49.40085 | 21223 ft | 481 kts | 182° |
| 2026-05-08 15:27 | -25.29468 | -49.39958 | 20228 ft | 474 kts | 182° |
| 2026-05-08 15:27 | -25.32749 | -49.39838 | 19255 ft | 470 kts | 182° |
| 2026-05-08 15:27 | -25.35996 | -49.39706 | 18302 ft | 465 kts | 182° |
| 2026-05-08 15:27 | -25.39204 | -49.39559 | 17208 ft | 461 kts | 182° |
| 2026-05-08 15:28 | -25.42382 | -49.39406 | 16324 ft | 453 kts | 182° |
| 2026-05-08 15:28 | -25.45453 | -49.39110 | 15918 ft | 438 kts | 171° |
| 2026-05-08 15:28 | -25.48225 | -49.37906 | 15771 ft | 420 kts | 153° |
| 2026-05-08 15:28 | -25.50561 | -49.36063 | 15445 ft | 407 kts | 137° |
| 2026-05-08 15:29 | -25.52499 | -49.33907 | 15153 ft | 394 kts | 135° |
| 2026-05-08 15:29 | -25.54360 | -49.31760 | 14959 ft | 378 kts | 134° |
| 2026-05-08 15:29 | -25.56147 | -49.29705 | 14752 ft | 364 kts | 135° |
| 2026-05-08 15:29 | -25.57880 | -49.27735 | 14554 ft | 351 kts | 135° |
| 2026-05-08 15:30 | -25.59569 | -49.25835 | 14306 ft | 342 kts | 135° |
| 2026-05-08 15:30 | -25.61221 | -49.23985 | 14025 ft | 335 kts | 135° |
| 2026-05-08 15:30 | -25.62852 | -49.22160 | 13610 ft | 332 kts | 135° |
| 2026-05-08 15:30 | -25.64478 | -49.20341 | 13095 ft | 332 kts | 135° |
| 2026-05-08 15:31 | -25.66100 | -49.18516 | 12621 ft | 331 kts | 134° |
| 2026-05-08 15:31 | -25.67687 | -49.16676 | 12196 ft | 329 kts | 134° |
| 2026-05-08 15:31 | -25.69264 | -49.14840 | 11721 ft | 328 kts | 134° |
| 2026-05-08 15:31 | -25.70814 | -49.13039 | 11573 ft | 315 kts | 134° |
| 2026-05-08 15:32 | -25.72276 | -49.11342 | 11404 ft | 295 kts | 134° |
| 2026-05-08 15:32 | -25.73676 | -49.09718 | 10950 ft | 289 kts | 134° |
| 2026-05-08 15:32 | -25.75074 | -49.08104 | 10401 ft | 291 kts | 133° |
| 2026-05-08 15:32 | -25.76449 | -49.06525 | 10201 ft | 274 kts | 133° |
| 2026-05-08 15:33 | -25.77731 | -49.05061 | 10061 ft | 256 kts | 134° |
| 2026-05-08 15:33 | -25.78958 | -49.03662 | 9702 ft | 250 kts | 134° |
| 2026-05-08 15:33 | -25.80109 | -49.02247 | 9289 ft | 244 kts | 119° |
| 2026-05-08 15:33 | -25.80615 | -49.00532 | 8859 ft | 226 kts | 81° |
| 2026-05-08 15:34 | -25.80237 | -48.98960 | 8505 ft | 203 kts | 45° |
| 2026-05-08 15:34 | -25.79427 | -48.97698 | 8154 ft | 202 kts | 40° |
| 2026-05-08 15:34 | -25.78559 | -48.96449 | 7799 ft | 206 kts | 40° |
| 2026-05-08 15:34 | -25.77672 | -48.95200 | 7451 ft | 204 kts | 35° |
| 2026-05-08 15:35 | -25.76582 | -48.94462 | 7308 ft | 165 kts | 356° |
| 2026-05-08 15:35 | -25.75565 | -48.94696 | 7314 ft | 152 kts | 326° |
| 2026-05-08 15:35 | -25.74638 | -48.95336 | 7307 ft | 159 kts | 323° |
| 2026-05-08 15:35 | -25.73714 | -48.96011 | 7295 ft | 161 kts | 322° |
| 2026-05-08 15:36 | -25.72770 | -48.96702 | 7080 ft | 161 kts | 322° |
| 2026-05-08 15:36 | -25.71852 | -48.97373 | 6921 ft | 155 kts | 322° |
| 2026-05-08 15:36 | -25.70987 | -48.98095 | 6738 ft | 155 kts | 317° |
| 2026-05-08 15:36 | -25.70185 | -48.98874 | 6699 ft | 152 kts | 315° |
| 2026-05-08 15:37 | -25.69378 | -48.99667 | 6624 ft | 158 kts | 316° |
| 2026-05-08 15:37 | -25.68560 | -49.00476 | 6422 ft | 155 kts | 315° |
| 2026-05-08 15:37 | -25.67778 | -49.01239 | 6210 ft | 144 kts | 315° |
| 2026-05-08 15:37 | -25.67044 | -49.01945 | 5948 ft | 135 kts | 315° |
| 2026-05-08 15:38 | -25.66293 | -49.02640 | 5960 ft | 157 kts | 316° |
| 2026-05-08 15:38 | -25.65446 | -49.03472 | 5891 ft | 161 kts | 314° |
| 2026-05-08 15:38 | -25.64671 | -49.04298 | 5786 ft | 147 kts | 313° |
| 2026-05-08 15:38 | -25.63980 | -49.05061 | 5588 ft | 134 kts | 313° |
| 2026-05-08 15:39 | -25.63303 | -49.05819 | 5518 ft | 153 kts | 313° |
| 2026-05-08 15:39 | -25.62534 | -49.06682 | 5417 ft | 154 kts | 313° |
| 2026-05-08 15:39 | -25.61828 | -49.07475 | 5242 ft | 138 kts | 314° |
| 2026-05-08 15:39 | -25.61177 | -49.08208 | 5090 ft | 130 kts | 314° |
| 2026-05-08 15:40 | -25.60539 | -49.08926 | 4937 ft | 132 kts | 314° |
| 2026-05-08 15:40 | -25.59902 | -49.09642 | 4805 ft | 127 kts | 314° |
| 2026-05-08 15:40 | -25.59283 | -49.10338 | 4627 ft | 128 kts | 312° |
| 2026-05-08 15:40 | -25.58656 | -49.11044 | 4454 ft | 129 kts | 313° |
| 2026-05-08 15:41 | -25.58032 | -49.11746 | 4284 ft | 128 kts | 313° |
| 2026-05-08 15:41 | -25.57409 | -49.12447 | 4120 ft | 127 kts | 313° |
| 2026-05-08 15:41 | -25.56793 | -49.13140 | 3943 ft | 128 kts | 313° |
| 2026-05-08 15:41 | -25.56172 | -49.13839 | 3792 ft | 127 kts | 312° |
| 2026-05-08 15:42 | -25.55546 | -49.14545 | 3614 ft | 130 kts | 313° |
| 2026-05-08 15:42 | -25.54900 | -49.15271 | 3417 ft | 130 kts | 313° |
| 2026-05-08 15:42 | -25.54276 | -49.15979 | 3206 ft | 129 kts | 313° |
| 2026-05-08 15:42 | -25.53662 | -49.16667 | 3030 ft | 118 kts | 311° |
| 2026-05-08 15:43 | -25.53155 | -49.17241 | 2987 ft | 90 kts | 316° |
| 2026-05-08 15:43 | -25.52817 | -49.17614 | 2987 ft | 21 kts | 315° |
| 2026-05-08 15:43 | -25.52713 | -49.17729 | 2987 ft | 23 kts | 315° |
| 2026-05-08 15:43 | -25.52592 | -49.17863 | 2988 ft | 25 kts | 316° |
| 2026-05-08 15:44 | -25.52538 | -49.17994 | 2990 ft | 16 kts | 221° |
| 2026-05-08 15:44 | -25.52643 | -49.18001 | 2990 ft | 15 kts | 176° |
| 2026-05-08 15:44 | -25.52746 | -49.17995 | 2990 ft | 15 kts | 179° |
| 2026-05-08 15:44 | -25.52845 | -49.17991 | 2988 ft | 14 kts | 172° |
| 2026-05-08 15:45 | -25.52918 | -49.17928 | 2990 ft | 13 kts | 136° |
| 2026-05-08 15:45 | -25.52975 | -49.17852 | 2989 ft | 13 kts | 106° |
| 2026-05-08 15:45 | -25.52984 | -49.17755 | 2989 ft | 13 kts | 94° |
| 2026-05-08 15:45 | -25.52988 | -49.17660 | 2988 ft | 12 kts | 103° |
| 2026-05-08 15:46 | -25.53038 | -49.17587 | 2988 ft | 12 kts | 134° |
| 2026-05-08 15:46 | -25.53096 | -49.17523 | 2987 ft | 12 kts | 134° |
| 2026-05-08 15:46 | -25.53149 | -49.17474 | 2987 ft | 7 kts | 175° |
| 2026-05-08 15:46 | -25.53189 | -49.17496 | 2987 ft | 6 kts | 225° |
| 2026-05-08 15:47 | -25.53191 | -49.17498 | 2987 ft | 0 kts | 225° |